createdAt,value
2019-06-26T00:02:26.415Z,92.20
2019-06-26T00:04:58.735Z,92.30
2019-06-26T00:07:45.495Z,92.50
2019-06-26T00:10:14.041Z,92.40
2019-06-26T00:12:41.685Z,92.20
2019-06-26T00:15:09.435Z,92.50
2019-06-26T00:17:36.866Z,92.50
2019-06-26T00:20:04.486Z,92.60
2019-06-26T00:22:32.121Z,92.60
2019-06-26T00:24:59.694Z,92.70
2019-06-26T00:27:27.148Z,92.90
2019-06-26T00:29:54.838Z,92.90
2019-06-26T00:32:22.935Z,93.10
2019-06-26T00:34:50.455Z,93.30
2019-06-26T00:37:17.865Z,93.50
2019-06-26T00:39:49.739Z,93.50
2019-06-26T00:42:17.314Z,93.70
2019-06-26T00:44:45.083Z,93.70
2019-06-26T00:47:12.585Z,93.50
2019-06-26T00:49:40.086Z,93.60
2019-06-26T00:52:07.602Z,93.60
2019-06-26T00:54:35.214Z,93.40
2019-06-26T00:57:04.742Z,93.30
2019-06-26T00:59:33.201Z,93.50
2019-06-26T01:02:00.679Z,93.50
2019-06-26T01:04:32.357Z,93.50
2019-06-26T01:06:59.895Z,93.60
2019-06-26T01:09:27.558Z,93.60
2019-06-26T01:11:55.117Z,93.50
2019-06-26T01:14:22.597Z,93.40
2019-06-26T01:16:50.233Z,93.40
2019-06-26T01:19:17.731Z,93.50
2019-06-26T01:21:45.241Z,93.50
2019-06-26T01:24:12.921Z,93.60
2019-06-26T01:26:40.544Z,93.50
2019-06-26T01:29:08.148Z,93.50
2019-06-26T01:31:35.724Z,93.60
2019-06-26T01:34:03.341Z,93.70
2019-06-26T01:36:30.834Z,93.70
2019-06-26T01:38:58.291Z,93.60
2019-06-26T01:41:25.775Z,93.40
2019-06-26T01:43:56.211Z,93.60
2019-06-26T01:46:24.458Z,93.80
2019-06-26T01:48:52.147Z,93.80
2019-06-26T01:51:19.860Z,93.90
2019-06-26T01:53:49.068Z,93.90
2019-06-26T01:56:20.271Z,94.00
2019-06-26T01:58:47.924Z,94.10
2019-06-26T02:01:15.812Z,94.10
2019-06-26T02:03:44.048Z,94.20
2019-06-26T02:06:12.426Z,94.50
2019-06-26T02:08:40.318Z,94.70
2019-06-26T02:11:08.553Z,94.80
2019-06-26T02:13:36.948Z,94.80
2019-06-26T02:16:04.819Z,95.10
2019-06-26T02:18:40.205Z,95.20
2019-06-26T02:21:07.840Z,94.90
2019-06-26T02:23:35.453Z,94.80
2019-06-26T02:26:03.094Z,94.90
2019-06-26T02:28:30.645Z,95.00
2019-06-26T02:30:58.083Z,95.10
2019-06-26T02:33:25.589Z,95.10
2019-06-26T02:35:53.119Z,95.10
2019-06-26T02:38:20.664Z,95.20
2019-06-26T02:40:48.233Z,95.30
2019-06-26T02:43:15.752Z,95.30
2019-06-26T02:45:43.438Z,95.50
2019-06-26T02:48:11.034Z,95.60
2019-06-26T02:50:38.490Z,95.60
2019-06-26T02:53:06.021Z,95.50
2019-06-26T02:55:33.593Z,95.50
2019-06-26T02:58:01.113Z,95.40
2019-06-26T03:00:28.650Z,95.50
2019-06-26T03:02:56.139Z,95.30
2019-06-26T03:05:23.599Z,95.30
2019-06-26T03:07:51.046Z,95.50
2019-06-26T03:10:18.660Z,95.40
2019-06-26T03:12:46.195Z,95.30
2019-06-26T03:15:13.930Z,95.30
2019-06-26T03:17:54.666Z,95.10
2019-06-26T03:20:12.095Z,95.20
2019-06-26T03:22:39.587Z,95.20
2019-06-26T03:25:07.363Z,95.30
2019-06-26T03:27:35.329Z,95.40
2019-06-26T03:30:03.128Z,95.50
2019-06-26T03:32:30.782Z,95.40
2019-06-26T03:34:58.918Z,95.20
2019-06-26T03:37:26.683Z,95.40
2019-06-26T03:39:54.481Z,95.50
2019-06-26T03:42:22.047Z,95.50
2019-06-26T03:44:49.562Z,95.60
2019-06-26T03:47:17.010Z,95.60
2019-06-26T03:49:44.609Z,95.70
2019-06-26T03:52:12.207Z,95.80
2019-06-26T03:54:39.823Z,95.90
2019-06-26T03:57:07.327Z,95.80
2019-06-26T03:59:35.242Z,95.70
2019-06-26T04:02:03.443Z,95.70
2019-06-26T04:04:30.962Z,95.70
2019-06-26T04:06:58.446Z,95.70
2019-06-26T04:09:26.194Z,95.50
2019-06-26T04:11:54.153Z,95.40
2019-06-26T04:14:24.290Z,95.30
2019-06-26T04:16:52.401Z,95.00
2019-06-26T04:19:20.139Z,94.80
2019-06-26T04:21:47.669Z,94.50
2019-06-26T04:24:15.741Z,94.30
2019-06-26T04:26:44.711Z,94.20
2019-06-26T04:29:12.246Z,94.10
2019-06-26T04:31:39.781Z,93.80
2019-06-26T04:34:07.944Z,93.50
2019-06-26T04:36:35.414Z,93.00
2019-06-26T04:39:05.646Z,92.90
2019-06-26T04:41:33.884Z,92.60
2019-06-26T04:44:01.515Z,92.50
2019-06-26T04:46:29.213Z,92.30
2019-06-26T04:48:57.117Z,92.10
2019-06-26T04:51:24.596Z,91.90
2019-06-26T04:53:55.631Z,91.80
2019-06-26T04:56:21.913Z,91.50
2019-06-26T04:58:49.692Z,91.50
2019-06-26T05:01:17.343Z,91.50
2019-06-26T05:03:45.904Z,91.40
2019-06-26T05:06:13.447Z,91.00
2019-06-26T05:08:41.134Z,90.70
2019-06-26T05:11:11.729Z,90.60
2019-06-26T05:13:38.486Z,90.50
2019-06-26T05:16:15.515Z,90.70
2019-06-26T05:18:36.992Z,90.80
2019-06-26T05:21:04.508Z,90.10
2019-06-26T05:23:32.032Z,89.60
2019-06-26T05:25:59.585Z,89.20
2019-06-26T05:28:27.230Z,88.80
2019-06-26T05:30:54.765Z,88.20
2019-06-26T05:33:22.272Z,87.70
2019-06-26T05:35:50.004Z,87.50
2019-06-26T05:38:17.986Z,86.80
2019-06-26T05:40:45.572Z,86.00
2019-06-26T05:43:13.082Z,85.30
2019-06-26T05:45:40.768Z,84.70
2019-06-26T05:48:08.600Z,84.50
2019-06-26T05:50:36.326Z,84.30
2019-06-26T05:53:04.069Z,82.70
2019-06-26T05:55:31.661Z,81.70
2019-06-26T05:57:59.307Z,83.20
2019-06-26T06:00:26.802Z,84.00
2019-06-26T06:02:54.383Z,83.20
2019-06-26T06:05:21.968Z,83.20
2019-06-26T06:07:49.486Z,81.70
2019-06-26T06:10:17.284Z,81.20
2019-06-26T06:12:44.929Z,80.20
2019-06-26T06:15:17.923Z,80.60
2019-06-26T06:17:45.416Z,80.00
2019-06-26T06:20:13.451Z,78.70
2019-06-26T06:22:40.974Z,78.60
2019-06-26T06:25:08.581Z,77.60
2019-06-26T06:27:37.127Z,76.90
2019-06-26T06:30:05.896Z,78.60
2019-06-26T06:32:33.497Z,77.40
2019-06-26T06:35:01.080Z,78.20
2019-06-26T06:37:29.192Z,76.90
2019-06-26T06:39:56.847Z,75.20
2019-06-26T06:42:24.270Z,74.30
2019-06-26T06:44:51.937Z,73.70
2019-06-26T06:47:19.566Z,74.80
2019-06-26T06:49:51.227Z,73.00
2019-06-26T06:52:18.975Z,70.90
2019-06-26T06:54:46.542Z,70.90
2019-06-26T06:57:13.994Z,73.50
2019-06-26T06:59:41.650Z,73.00
2019-06-26T07:02:09.222Z,73.30
2019-06-26T07:04:36.882Z,73.30
2019-06-26T07:07:04.439Z,72.60
2019-06-26T07:09:32.005Z,70.70
2019-06-26T07:11:59.687Z,69.80
2019-06-26T07:14:27.146Z,69.80
2019-06-26T07:16:56.449Z,65.00
2019-06-26T07:19:24.126Z,66.30
2019-06-26T07:21:51.692Z,65.70
2019-06-26T07:24:19.223Z,65.00
2019-06-26T07:26:47.850Z,63.50
2019-06-26T07:29:15.622Z,60.50
2019-06-26T07:31:45.681Z,63.50
2019-06-26T07:34:13.736Z,65.00
2019-06-26T07:36:55.989Z,61.20
2019-06-26T07:39:24.253Z,60.10
2019-06-26T07:41:51.909Z,59.50
2019-06-26T07:44:19.647Z,58.40
2019-06-26T07:46:47.195Z,59.90
2019-06-26T07:49:14.626Z,59.20
2019-06-26T07:51:44.200Z,59.90
2019-06-26T07:54:11.994Z,58.90
2019-06-26T07:56:39.533Z,58.30
2019-06-26T07:59:07.171Z,60.50
2019-06-26T08:01:34.798Z,58.70
2019-06-26T08:04:02.525Z,55.50
2019-06-26T08:06:30.231Z,56.70
2019-06-26T08:08:57.674Z,58.10
2019-06-26T08:11:25.144Z,57.20
2019-06-26T08:13:56.963Z,57.40
2019-06-26T08:16:24.456Z,56.90
2019-06-26T08:18:51.974Z,56.30
2019-06-26T08:21:19.685Z,55.70
2019-06-26T08:23:47.282Z,56.60
2019-06-26T08:26:14.950Z,55.80
2019-06-26T08:28:42.877Z,55.70
2019-06-26T08:31:10.770Z,54.90
2019-06-26T08:33:38.540Z,55.10
2019-06-26T08:36:06.122Z,55.10
2019-06-26T08:38:33.686Z,54.60
2019-06-26T08:41:01.269Z,55.50
2019-06-26T08:43:31.498Z,54.60
2019-06-26T08:45:58.602Z,55.50
2019-06-26T08:48:38.969Z,52.00
2019-06-26T08:50:55.787Z,51.90
2019-06-26T08:53:23.721Z,51.10
2019-06-26T08:55:51.424Z,51.40
2019-06-26T08:58:19.441Z,49.90
2019-06-26T09:00:53.626Z,52.20
2019-06-26T09:03:21.303Z,51.60
2019-06-26T09:05:48.941Z,49.90
2019-06-26T09:08:30.620Z,52.00
2019-06-26T09:10:58.889Z,50.00
2019-06-26T09:13:26.659Z,52.00
2019-06-26T09:15:54.298Z,49.10
2019-06-26T09:18:34.764Z,48.80
2019-06-26T09:20:51.858Z,49.70
2019-06-26T09:23:19.879Z,49.10
2019-06-26T09:25:47.614Z,48.80
2019-06-26T09:28:15.385Z,48.20
2019-06-26T09:30:43.183Z,47.50
2019-06-26T09:33:10.886Z,47.00
2019-06-26T09:35:38.614Z,47.30
2019-06-26T09:38:06.224Z,46.20
2019-06-26T09:40:34.012Z,47.60
2019-06-26T09:43:01.741Z,46.50
2019-06-26T09:45:29.370Z,46.50
2019-06-26T09:47:56.899Z,45.20
2019-06-26T09:50:24.542Z,43.50
2019-06-26T09:52:52.320Z,42.90
2019-06-26T09:55:20.212Z,41.80
2019-06-26T09:57:47.939Z,41.10
2019-06-26T10:00:16.851Z,41.20
2019-06-26T10:02:44.530Z,43.50
2019-06-26T10:05:12.594Z,44.10
2019-06-26T10:07:40.269Z,43.60
2019-06-26T10:10:07.966Z,41.70
2019-06-26T10:12:36.502Z,41.40
2019-06-26T10:15:07.853Z,44.10
2019-06-26T10:17:35.673Z,43.00
2019-06-26T10:20:04.175Z,42.30
2019-06-26T10:22:31.723Z,44.30
2019-06-26T10:25:00.668Z,43.80
2019-06-26T10:27:28.558Z,44.30
2019-06-26T10:29:56.237Z,42.60
2019-06-26T10:32:23.975Z,41.70
2019-06-26T10:34:51.537Z,39.80
2019-06-26T10:37:19.262Z,41.50
2019-06-26T10:39:46.834Z,42.00
2019-06-26T10:42:16.992Z,42.30
2019-06-26T10:44:44.696Z,44.00
2019-06-26T10:47:12.506Z,43.20
2019-06-26T10:49:40.101Z,41.40
2019-06-26T10:52:07.666Z,41.70
2019-06-26T10:54:35.413Z,38.20
2019-06-26T10:57:03.035Z,38.90
2019-06-26T10:59:30.935Z,38.20
2019-06-26T11:01:58.809Z,40.50
2019-06-26T11:04:27.273Z,41.20
2019-06-26T11:06:54.961Z,39.50
2019-06-26T11:09:22.499Z,41.40
2019-06-26T11:11:50.147Z,40.60
2019-06-26T11:14:18.061Z,40.10
2019-06-26T11:16:45.706Z,36.30
2019-06-26T11:19:13.404Z,33.60
2019-06-26T11:21:41.070Z,35.90
2019-06-26T11:24:08.648Z,34.10
2019-06-26T11:26:36.118Z,36.30
2019-06-26T11:29:03.899Z,36.80
2019-06-26T11:31:31.559Z,38.80
2019-06-26T11:33:59.329Z,35.00
2019-06-26T11:36:28.346Z,35.60
2019-06-26T11:38:56.015Z,37.30
2019-06-26T11:41:23.575Z,34.70
2019-06-26T11:43:51.193Z,37.30
2019-06-26T11:46:18.714Z,36.50
2019-06-26T11:48:46.317Z,35.30
2019-06-26T11:51:13.969Z,35.40
2019-06-26T11:53:42.653Z,35.30
2019-06-26T11:56:11.039Z,33.70
2019-06-26T11:58:39.015Z,32.20
2019-06-26T12:01:06.733Z,33.70
2019-06-26T12:03:34.556Z,34.20
2019-06-26T12:06:17.933Z,35.40
2019-06-26T12:08:32.354Z,35.10
2019-06-26T12:11:00.468Z,31.90
2019-06-26T12:13:28.907Z,33.60
2019-06-26T12:15:56.542Z,34.10
2019-06-26T12:18:24.158Z,35.30
2019-06-26T12:20:51.976Z,32.10
2019-06-26T12:23:19.632Z,29.40
2019-06-26T12:25:47.182Z,28.40
2019-06-26T12:28:14.729Z,29.70
2019-06-26T12:30:42.455Z,26.30
2019-06-26T12:33:10.060Z,28.00
2019-06-26T12:35:37.713Z,30.40
2019-06-26T12:38:05.377Z,30.10
2019-06-26T12:40:32.967Z,27.70
2019-06-26T12:43:01.586Z,24.30
2019-06-26T12:45:29.226Z,26.60
2019-06-26T12:47:56.699Z,28.30
2019-06-26T12:50:34.881Z,29.70
2019-06-26T12:52:54.269Z,30.20
2019-06-26T12:55:21.805Z,30.10
2019-06-26T12:57:49.295Z,28.80
2019-06-26T13:00:17.035Z,29.20
2019-06-26T13:02:44.624Z,29.80
2019-06-26T13:05:12.611Z,27.80
2019-06-26T13:07:40.275Z,28.50
2019-06-26T13:10:10.052Z,28.40
2019-06-26T13:12:38.737Z,27.10
2019-06-26T13:15:06.737Z,29.10
2019-06-26T13:17:34.305Z,27.10
2019-06-26T13:20:01.948Z,27.30
2019-06-26T13:22:29.657Z,27.80
2019-06-26T13:24:57.296Z,29.20
2019-06-26T13:27:24.850Z,29.70
2019-06-26T13:29:52.394Z,29.90
2019-06-26T13:32:20.122Z,30.70
2019-06-26T13:34:47.613Z,28.50
2019-06-26T13:37:15.093Z,28.30
2019-06-26T13:39:42.618Z,29.70
2019-06-26T13:42:10.118Z,29.60
2019-06-26T13:44:37.597Z,30.60
2019-06-26T13:47:05.186Z,30.90
2019-06-26T13:49:32.755Z,29.80
2019-06-26T13:52:00.254Z,28.70
2019-06-26T13:54:28.902Z,28.90
2019-06-26T13:56:56.455Z,29.90
2019-06-26T13:59:23.993Z,28.50
2019-06-26T14:01:51.766Z,28.20
2019-06-26T14:04:19.358Z,28.00
2019-06-26T14:06:46.841Z,28.80
2019-06-26T14:09:14.358Z,29.30
2019-06-26T14:11:41.902Z,29.40
2019-06-26T14:14:09.407Z,29.70
2019-06-26T14:16:37.042Z,28.50
2019-06-26T14:19:04.660Z,30.90
2019-06-26T14:21:32.194Z,29.10
2019-06-26T14:23:59.757Z,29.40
2019-06-26T14:26:27.208Z,29.20
2019-06-26T14:28:54.866Z,29.40
2019-06-26T14:31:22.602Z,29.80
2019-06-26T14:33:50.244Z,29.40
2019-06-26T14:36:17.695Z,29.50
2019-06-26T14:38:45.212Z,28.40
2019-06-26T14:41:12.745Z,28.00
2019-06-26T14:43:40.471Z,27.60
2019-06-26T14:46:07.907Z,29.40
2019-06-26T14:48:35.522Z,30.10
2019-06-26T14:51:03.101Z,29.50
2019-06-26T14:53:30.576Z,28.90
2019-06-26T14:55:58.049Z,29.00
2019-06-26T14:58:25.706Z,29.10
2019-06-26T15:00:53.213Z,29.70
2019-06-26T15:03:20.768Z,28.40
2019-06-26T15:05:48.413Z,29.30
2019-06-26T15:08:16.186Z,30.60
2019-06-26T15:10:44.849Z,28.60
2019-06-26T15:13:12.502Z,27.90
2019-06-26T15:15:40.378Z,29.00
2019-06-26T15:18:09.843Z,29.60
2019-06-26T15:20:37.349Z,30.60
2019-06-26T15:23:08.135Z,31.60
2019-06-26T15:25:35.729Z,33.90
2019-06-26T15:28:03.732Z,30.90
2019-06-26T15:30:31.339Z,31.90
2019-06-26T15:32:59.012Z,32.10
2019-06-26T15:35:26.525Z,29.70
2019-06-26T15:37:54.088Z,30.60
2019-06-26T15:40:21.676Z,30.60
2019-06-26T15:42:49.326Z,31.80
2019-06-26T15:45:20.559Z,32.20
2019-06-26T15:47:46.630Z,35.10
2019-06-26T15:50:14.239Z,33.30
2019-06-26T15:52:41.941Z,34.80
2019-06-26T15:55:09.838Z,33.10
2019-06-26T15:57:37.401Z,34.80
2019-06-26T16:00:05.224Z,32.70
2019-06-26T16:02:33.523Z,33.00
2019-06-26T16:05:01.377Z,32.50
2019-06-26T16:07:29.903Z,34.80
2019-06-26T16:09:57.723Z,36.60
2019-06-26T16:12:25.486Z,34.80
2019-06-26T16:14:53.145Z,34.80
2019-06-26T16:17:37.099Z,36.30
2019-06-26T16:20:15.541Z,37.10
2019-06-26T16:22:43.182Z,36.20
2019-06-26T16:25:10.953Z,38.20
2019-06-26T16:27:38.574Z,35.90
2019-06-26T16:30:06.608Z,35.60
2019-06-26T16:32:34.186Z,35.40
2019-06-26T16:35:01.722Z,34.70
2019-06-26T16:37:29.854Z,36.00
2019-06-26T16:39:57.382Z,34.50
2019-06-26T16:42:25.076Z,33.90
2019-06-26T16:44:52.587Z,35.00
2019-06-26T16:47:20.054Z,36.20
2019-06-26T16:49:47.534Z,35.90
2019-06-26T16:52:15.003Z,36.00
2019-06-26T16:54:42.525Z,34.50
2019-06-26T16:57:10.069Z,39.10
2019-06-26T16:59:37.564Z,38.60
2019-06-26T17:02:07.114Z,36.90
2019-06-26T17:04:34.603Z,35.10
2019-06-26T17:07:02.272Z,37.10
2019-06-26T17:09:30.196Z,35.70
2019-06-26T17:11:57.834Z,37.90
2019-06-26T17:14:26.169Z,37.30
2019-06-26T17:16:54.012Z,37.40
2019-06-26T17:19:21.594Z,37.70
2019-06-26T17:21:49.146Z,36.50
2019-06-26T17:24:16.831Z,38.60
2019-06-26T17:27:08.746Z,40.00
2019-06-26T17:29:39.548Z,40.80
2019-06-26T17:32:07.102Z,40.60
2019-06-26T17:34:34.787Z,41.10
2019-06-26T17:37:03.212Z,41.40
2019-06-26T17:39:30.815Z,41.70
2019-06-26T17:41:58.475Z,41.50
2019-06-26T17:44:26.317Z,40.50
2019-06-26T17:46:53.976Z,41.20
2019-06-26T17:49:21.973Z,42.30
2019-06-26T17:51:49.923Z,42.70
2019-06-26T17:54:17.447Z,42.40
2019-06-26T17:56:45.080Z,43.30
2019-06-26T17:59:12.969Z,43.50
2019-06-26T18:01:40.788Z,43.30
2019-06-26T18:04:09.299Z,44.60
2019-06-26T18:06:36.947Z,45.50
2019-06-26T18:09:11.885Z,45.60
2019-06-26T18:11:37.590Z,46.10
2019-06-26T18:14:05.106Z,48.70
2019-06-26T18:16:33.048Z,48.50
2019-06-26T18:19:01.430Z,47.60
2019-06-26T18:21:29.325Z,48.20
2019-06-26T18:23:57.018Z,47.20
2019-06-26T18:26:26.261Z,48.20
2019-06-26T18:28:54.047Z,48.20
2019-06-26T18:31:21.743Z,47.50
2019-06-26T18:33:49.391Z,48.50
2019-06-26T18:36:17.036Z,51.10
2019-06-26T18:38:44.706Z,54.50
2019-06-26T18:41:12.379Z,57.40
2019-06-26T18:43:40.254Z,56.90
2019-06-26T18:46:07.894Z,53.50
2019-06-26T18:48:35.646Z,54.20
2019-06-26T18:51:03.296Z,52.80
2019-06-26T18:53:30.965Z,53.90
2019-06-26T18:55:58.677Z,56.70
2019-06-26T18:58:30.672Z,57.20
2019-06-26T19:00:56.749Z,58.90
2019-06-26T19:03:24.536Z,60.10
2019-06-26T19:05:52.621Z,61.40
2019-06-26T19:08:20.523Z,63.50
2019-06-26T19:10:48.090Z,64.80
2019-06-26T19:13:15.765Z,64.80
2019-06-26T19:15:43.769Z,66.10
2019-06-26T19:18:15.363Z,66.40
2019-06-26T19:20:45.387Z,66.60
2019-06-26T19:23:13.111Z,66.30
2019-06-26T19:25:40.907Z,67.00
2019-06-26T19:28:08.594Z,68.10
2019-06-26T19:30:37.208Z,69.80
2019-06-26T19:33:05.015Z,69.40
2019-06-26T19:35:32.883Z,67.90
2019-06-26T19:38:00.576Z,68.30
2019-06-26T19:40:29.362Z,68.90
2019-06-26T19:42:56.953Z,68.70
2019-06-26T19:45:25.415Z,69.20
2019-06-26T19:47:53.043Z,68.30
2019-06-26T19:50:23.434Z,66.60
2019-06-26T19:52:50.227Z,66.10
2019-06-26T19:55:17.999Z,67.00
2019-06-26T19:57:45.587Z,68.90
2019-06-26T20:00:14.854Z,70.00
2019-06-26T20:02:42.999Z,71.30
2019-06-26T20:05:12.526Z,71.80
2019-06-26T20:07:42.941Z,72.80
2019-06-26T20:10:11.308Z,73.70
2019-06-26T20:12:38.935Z,73.90
2019-06-26T20:15:06.899Z,73.50
2019-06-26T20:17:34.480Z,73.50
2019-06-26T20:20:02.079Z,73.90
2019-06-26T20:22:29.938Z,73.70
2019-06-26T20:24:57.644Z,72.00
2019-06-26T20:27:25.246Z,73.00
2019-06-26T20:29:52.919Z,74.10
2019-06-26T20:32:20.381Z,74.50
2019-06-26T20:34:48.028Z,74.60
2019-06-26T20:37:15.562Z,72.60
2019-06-26T20:39:44.045Z,73.90
2019-06-26T20:42:11.670Z,75.60
2019-06-26T20:44:39.177Z,76.10
2019-06-26T20:47:06.914Z,76.70
2019-06-26T20:49:34.838Z,77.40
2019-06-26T20:52:02.564Z,77.80
2019-06-26T20:54:30.694Z,78.00
2019-06-26T20:56:58.444Z,77.40
2019-06-26T20:59:26.529Z,78.20
2019-06-26T21:01:54.946Z,78.20
2019-06-26T21:04:23.231Z,78.40
2019-06-26T21:06:51.010Z,78.40
2019-06-26T21:09:19.006Z,78.90
2019-06-26T21:11:46.887Z,79.10
2019-06-26T21:14:14.675Z,79.50
2019-06-26T21:16:42.928Z,78.70
2019-06-26T21:19:10.729Z,79.70
2019-06-26T21:21:38.698Z,80.20
2019-06-26T21:24:06.354Z,80.40
2019-06-26T21:26:34.042Z,80.80
2019-06-26T21:29:01.691Z,81.40
2019-06-26T21:31:30.358Z,81.20
2019-06-26T21:33:57.860Z,81.20
2019-06-26T21:36:25.443Z,82.10
2019-06-26T21:38:53.064Z,82.10
2019-06-26T21:41:20.734Z,81.70
2019-06-26T21:43:48.433Z,82.10
2019-06-26T21:46:15.997Z,82.50
2019-06-26T21:48:43.547Z,83.00
2019-06-26T21:51:11.157Z,83.40
2019-06-26T21:53:38.687Z,83.20
2019-06-26T21:56:24.953Z,83.40
2019-06-26T21:59:10.893Z,83.80
2019-06-26T22:01:57.215Z,84.30
2019-06-26T22:04:43.631Z,85.10
2019-06-26T22:07:15.606Z,85.60
2019-06-26T22:09:45.828Z,86.20
2019-06-26T22:12:13.454Z,86.40
2019-06-26T22:14:42.360Z,86.80
2019-06-26T22:17:10.097Z,86.90
2019-06-26T22:19:37.842Z,87.50
2019-06-26T22:22:05.459Z,87.10
2019-06-26T22:24:33.248Z,87.30
2019-06-26T22:27:00.744Z,87.50
2019-06-26T22:29:28.275Z,87.50
2019-06-26T22:31:56.015Z,87.90
2019-06-26T22:34:23.766Z,88.40
2019-06-26T22:36:52.307Z,88.80
2019-06-26T22:39:20.041Z,89.00
2019-06-26T22:41:47.727Z,89.40
2019-06-26T22:44:16.418Z,89.20
2019-06-26T22:46:43.934Z,89.20
2019-06-26T22:49:11.426Z,89.60
2019-06-26T22:51:38.906Z,89.60
2019-06-26T22:54:06.373Z,89.60
2019-06-26T22:56:34.964Z,90.10
2019-06-26T22:59:02.553Z,90.10
2019-06-26T23:01:30.128Z,90.20
2019-06-26T23:03:57.715Z,90.60
2019-06-26T23:06:25.304Z,90.80
2019-06-26T23:08:53.879Z,90.90
2019-06-26T23:11:21.511Z,91.10
2019-06-26T23:13:49.250Z,91.20
2019-06-26T23:16:16.726Z,91.60
2019-06-26T23:18:44.276Z,91.40
2019-06-26T23:21:11.867Z,91.30
2019-06-26T23:23:41.235Z,91.50
2019-06-26T23:26:23.048Z,91.70
2019-06-26T23:28:39.861Z,91.80
2019-06-26T23:31:07.478Z,91.80
2019-06-26T23:33:34.944Z,92.00
2019-06-26T23:36:03.882Z,92.20
2019-06-26T23:38:31.363Z,92.10
2019-06-26T23:40:58.878Z,92.10
2019-06-26T23:43:26.372Z,92.10
2019-06-26T23:45:53.953Z,92.20
2019-06-26T23:48:21.420Z,92.20
2019-06-26T23:50:48.879Z,92.10
2019-06-26T23:53:16.414Z,92.10
2019-06-26T23:55:43.912Z,92.10
2019-06-26T23:58:11.463Z,92.20
